LELC/MJV METAR and TAF weather

Enter ICAO airport designator
Station Type Date Time Source
LELC METAR 2019/08/18 09:00 UTC NOAA

LELC 180900Z 07004KT 020V150 9999 FEW009 28/24 Q1013 NOSIG


Station Type Date Time Source
LELC Decoded METAR 2019/08/18 09:00 UTC NOAA

Station name not available
Aug 18, 2019 - 05:00 AM EDT / 2019.08.18 0900 UTC
Wind: from the ENE (070 degrees) at 5 MPH (4 KT) (direction variable):0
Visibility: greater than 7 mile(s):0
Sky conditions: mostly clear
Temperature: 82 F (28 C)
Dew Point: 75 F (24 C)
Relative Humidity: 78%
Pressure (altimeter): 29.91 in. Hg (1013 hPa)
ob: LELC 180900Z 07004KT 020V150 9999 FEW009 28/24 Q1013 NOSIG
cycle: 9

Station Type Date Time Source
LELC TAF 2019/08/18 06:27 UTC NOAA

TAF LELC 180500Z 1806/1906 VRB02KT CAVOK TX33/1816Z TN20/1806Z PROB40
TEMPO 1806/1809 4000 BR BKN010
BECMG 1808/1810 12010KT
BECMG 1815/1817 22010KT

Example: see airport list